Accueil
METAR-TAF:

METAR-TAF

Aéroports :

Jos, Nigeria

latitude: 09-52N, longitude: 008-54E, altitude: 1295 m

Observation

Le bulletin a été fait il y a 7 heures et 9 minutes, à 08:00 UTC
Vent calme
Température 28°C
Humidité 84%
Pression 1009 hPa
Visibilité: 1000 m
Quelques nuages à une hauteur de 900 ft
brume sèche

METAR: DNJO 100800Z 00000KT 1000 HZ FEW009 28/25 Q1009 NOSIG

Heure: 16:09 (15:09 UTC)

Prévision

Le bulletin a été fait il y a 4 heures et 9 minutes, à 11:00 UTC
Prévision valable du 10 à 12 UTC au 11 à 18 UTC
Vent 10 kt de est/nord-est
Visibilité 10 km ou plus
pas de nuages en-dessous de 1500 mètres et pas de cumulonimbus.
Evoluant progressivement
du 10 à 13 UTC au 10 à 16 UTC
Vent 10 kt de sud

TAF: DNJO 101100Z 1012/1118 07010KT CAVOK BECMG 1013/1016 17010KT

Observations et prévisions météorologiques de plus de 4000 aéroports (messages METAR et TAF).

Les stations disponibles sont représentées par des disques jaunes et rouges sur la carte.

Passer la souris dessus pour voir le nom de la station.

Cliquer dessus pour voir les observations et prévisions météorologiques.

Pour changer de carte: cliquez sur les boutons verts avec une croix noire pour zoomer, sur le bouton vert avec un tiret pour effectuer un zoom arrière, ou sur les flèches vertes pour les cartes adjacentes.


METAR-TAF: